Time;durP1;ratioP1;P1;durP2;ratioP2;P2;SDS_P1;SDS_P2;PMS_P1;PMS_P2;Temp;Humidity;BMP_temperature;BMP_pressure;BME280_temperature;BME280_humidity;BME280_pressure;Samples;Min_cycle;Max_cycle;Signal;HPM_P1;HPM_P2
2022/08/01 00:01:49;;;;;;;5.40;4.12;;;;;;;14.62;73.26;100001.81;2059788;86;31506;-68
2022/08/01 00:04:54;;;;;;;5.95;4.28;;;;;;;14.70;73.59;100031.80;2060175;86;33350;-66
2022/08/01 00:07:55;;;;;;;5.20;3.80;;;;;;;14.57;73.72;100022.33;2060078;86;29345;-66
2022/08/01 00:10:57;;;;;;;6.05;4.62;;;;;;;14.62;73.88;100035.52;2059541;86;27709;-68
2022/08/01 00:13:58;;;;;;;6.80;4.40;;;;;;;14.57;73.94;100035.81;2059869;86;28563;-68
2022/08/01 00:16:59;;;;;;;8.00;5.25;;;;;;;14.54;74.01;100029.31;2059831;86;31016;-68
2022/08/01 00:20:03;;;;;;;5.62;4.28;;;;;;;14.49;74.13;100029.61;2059794;86;33886;-68
2022/08/01 00:23:04;;;;;;;8.50;5.50;;;;;;;14.45;74.25;100029.48;2059744;86;30173;-68
2022/08/01 00:26:06;;;;;;;4.78;4.37;;;;;;;14.41;74.32;100023.42;2059907;86;27844;-69
2022/08/01 00:29:07;;;;;;;7.55;4.85;;;;;;;14.39;74.45;100025.86;2060185;86;29640;-69
2022/08/01 00:32:09;;;;;;;7.37;5.03;;;;;;;14.36;74.50;100021.55;2059625;86;31056;-68
2022/08/01 00:35:11;;;;;;;7.40;5.40;;;;;;;14.29;74.58;100020.25;2059290;86;32932;-70
2022/08/01 00:38:13;;;;;;;5.47;4.30;;;;;;;14.29;74.58;100020.25;2059377;86;29452;-69
2022/08/01 00:41:14;;;;;;;5.60;4.90;;;;;;;14.25;74.83;100012.88;2060146;86;27822;-69
2022/08/01 00:44:16;;;;;;;6.55;4.65;;;;;;;14.23;74.83;100020.69;2059395;86;29951;-70
2022/08/01 00:47:17;;;;;;;10.85;5.87;;;;;;;14.20;74.95;100023.59;2059437;86;31453;-69
2022/08/01 00:50:19;;;;;;;8.45;5.37;;;;;;;14.16;75.07;100019.38;2059422;86;33149;-69
2022/08/01 00:53:20;;;;;;;14.07;5.10;;;;;;;14.12;75.15;100016.89;2059311;86;30604;-69
2022/08/01 00:56:25;;;;;;;5.90;5.25;;;;;;;14.10;75.35;100015.28;2059635;86;27604;-68
2022/08/01 00:59:27;;;;;;;11.53;5.55;;;;;;;14.08;75.42;100007.79;2060730;86;28700;-67
2022/08/01 01:02:28;;;;;;;6.90;5.42;;;;;;;14.04;75.56;100008.49;2061555;86;31184;-67
2022/08/01 01:05:34;;;;;;;5.75;5.15;;;;;;;14.02;75.73;100009.55;2061162;86;33428;-69
2022/08/01 01:08:56;;;;;;;7.67;5.20;;;;;;;13.99;75.87;100006.59;2061826;86;29986;-68
2022/08/01 01:12:51;;;;;;;6.37;5.20;;;;;;;13.98;76.07;100008.41;2061794;86;27638;-69
2022/08/01 01:16:04;;;;;;;6.22;5.58;;;;;;;13.97;76.20;100008.53;2061301;86;29900;-69
2022/08/01 01:19:11;;;;;;;7.22;5.97;;;;;;;13.95;76.43;100009.11;2061380;86;30996;-69
2022/08/01 01:22:23;;;;;;;8.35;6.10;;;;;;;13.94;76.54;100010.08;2061545;86;34133;-69
2022/08/01 01:25:38;;;;;;;8.35;5.70;;;;;;;13.93;76.67;100001.15;2027032;87;29682;-67
2022/08/01 01:29:25;;;;;;;8.08;5.33;;;;;;;13.92;76.73;100000.77;2026846;87;27730;-68
2022/08/01 01:32:40;;;;;;;6.20;5.60;;;;;;;13.91;76.82;100004.42;2026776;87;28681;-67
2022/08/01 01:35:46;;;;;;;6.58;5.97;;;;;;;13.90;76.89;100005.39;2026491;87;31881;-69
2022/08/01 01:38:48;;;;;;;13.10;6.30;;;;;;;13.87;76.87;99998.87;2027140;87;32774;-68
2022/08/01 01:41:51;;;;;;;5.90;5.15;;;;;;;13.86;76.84;99998.98;2004896;87;30386;-69
2022/08/01 01:44:54;;;;;;;7.22;5.00;;;;;;;13.82;76.84;99995.61;2027027;87;28397;-68
2022/08/01 01:47:57;;;;;;;11.65;4.85;;;;;;;13.80;76.95;99984.96;2026946;87;28651;-69
2022/08/01 01:50:59;;;;;;;6.62;5.55;;;;;;;13.79;77.00;99988.62;2026907;87;31460;-68
2022/08/01 01:54:01;;;;;;;6.12;5.42;;;;;;;13.77;77.19;99979.78;2026995;87;33322;-68
2022/08/01 01:57:04;;;;;;;5.95;4.87;;;;;;;13.77;77.36;99989.20;2027098;87;29698;-68
2022/08/01 02:00:08;;;;;;;12.05;4.80;;;;;;;13.78;77.46;99986.05;2026664;87;27763;-68
2022/08/01 02:03:12;;;;;;;8.93;5.58;;;;;;;13.78;77.56;99982.85;2051874;86;29554;-69
2022/08/01 02:06:14;;;;;;;6.55;4.72;;;;;;;13.79;77.69;99985.08;2061801;86;31389;-69
2022/08/01 02:09:19;;;;;;;7.30;4.80;;;;;;;13.79;77.70;99973.81;2038871;86;34023;-68
2022/08/01 02:12:21;;;;;;;;;;;;;;;13.79;77.75;99977.85;2064239;86;29753;-68
2022/08/01 02:15:23;;;;;;;6.80;5.28;;;;;;;13.79;77.77;99981.05;2061738;86;27687;-68
2022/08/01 02:18:25;;;;;;;7.85;5.08;;;;;;;13.76;77.86;99978.05;2061732;86;28614;-69
2022/08/01 02:21:56;;;;;;;5.45;4.92;;;;;;;13.76;77.86;99974.52;2061553;86;31400;-68
2022/08/01 02:25:14;;;;;;;6.70;5.62;;;;;;;13.76;78.06;99978.05;2061247;86;33134;-69
2022/08/01 02:28:33;;;;;;;7.12;6.08;;;;;;;13.77;78.23;99975.74;2061401;86;29270;-69
2022/08/01 02:31:38;;;;;;;8.00;6.50;;;;;;;13.81;78.42;99972.38;2060712;86;27637;-65
2022/08/01 02:34:41;;;;;;;10.43;7.78;;;;;;;13.83;78.53;99980.72;2061633;86;28620;-67
2022/08/01 02:37:43;;;;;;;7.90;7.05;;;;;;;13.88;78.66;99976.36;2061418;86;31886;-68
2022/08/01 02:40:47;;;;;;;9.90;6.97;;;;;;;13.93;78.73;99969.30;2061637;86;32729;-68
2022/08/01 02:43:52;;;;;;;9.18;7.45;;;;;;;13.98;78.80;99970.70;2038804;86;30135;-68
2022/08/01 02:47:02;;;;;;;9.13;7.75;;;;;;;14.04;78.84;99976.17;2061676;86;27840;-68
2022/08/01 02:50:07;;;;;;;7.80;6.97;;;;;;;14.08;78.83;99976.81;2061301;86;29441;-68
2022/08/01 02:53:11;;;;;;;11.33;7.22;;;;;;;14.11;78.85;99980.64;2061777;86;31036;-68
2022/08/01 02:56:13;;;;;;;8.63;7.12;;;;;;;14.13;78.92;99984.95;2061660;86;33340;-68
2022/08/01 02:59:19;;;;;;;10.20;7.08;;;;;;;14.16;78.84;99976.28;2039282;86;29909;-68
2022/08/01 03:02:22;;;;;;;7.08;6.20;;;;;;;14.18;78.86;99971.14;2062074;86;27635;-61
2022/08/01 03:05:25;;;;;;;7.22;5.80;;;;;;;14.20;78.97;99974.60;2062290;86;29473;-65
2022/08/01 03:08:29;;;;;;;7.37;6.22;;;;;;;14.09;78.89;99952.95;2062168;86;31041;-63
2022/08/01 03:11:31;;;;;;;10.03;6.22;;;;;;;14.24;78.98;99975.23;2062510;86;32972;-61
2022/08/01 03:14:36;;;;;;;7.20;6.50;;;;;;;14.25;78.97;99972.92;2062289;86;29403;-67
2022/08/01 03:17:39;;;;;;;7.65;5.70;;;;;;;14.29;79.07;99967.70;2062393;86;27698;-67
2022/08/01 03:20:42;;;;;;;6.17;5.17;;;;;;;14.33;79.06;99971.03;2061975;86;28761;-67
2022/08/01 03:23:46;;;;;;;8.10;5.92;;;;;;;14.25;78.95;99951.37;2061801;86;31922;-61
2022/08/01 03:26:48;;;;;;;7.83;5.22;;;;;;;14.25;78.95;99951.37;2062467;86;32982;-67
2022/08/01 03:29:51;;;;;;;5.37;4.87;;;;;;;14.43;79.20;99978.36;2061941;86;30185;-66
2022/08/01 03:32:53;;;;;;;10.10;6.03;;;;;;;14.48;79.12;99973.14;2061943;86;28277;-65
2022/08/01 03:35:56;;;;;;;7.85;6.05;;;;;;;14.51;79.05;99968.38;2062166;86;29083;-67
2022/08/01 03:39:01;;;;;;;6.90;5.58;;;;;;;14.55;79.07;99969.05;2061977;86;31458;-67
2022/08/01 03:42:06;;;;;;;;;;;;;;;14.62;79.09;99972.16;2043402;86;32976;-66
2022/08/01 03:45:12;;;;;;;6.20;5.40;;;;;;;14.66;79.09;99977.20;2061449;86;29504;-63
2022/08/01 03:48:19;;;;;;;7.30;5.67;;;;;;;14.69;79.05;99972.98;2062243;86;27756;-66
2022/08/01 03:51:21;;;;;;;6.65;5.92;;;;;;;14.70;78.93;99973.36;2062271;86;28646;-65
2022/08/01 03:54:26;;;;;;;6.55;5.87;;;;;;;14.77;78.98;99975.12;2040423;86;31903;-67
2022/08/01 03:57:28;;;;;;;;;;;;;;;14.82;78.84;99972.09;2064557;86;33173;-67
2022/08/01 04:00:31;;;;;;;8.45;5.67;;;;;;;14.89;79.06;99970.67;2032957;85;29325;-67
2022/08/01 04:03:33;;;;;;;9.30;6.90;;;;;;;14.96;79.11;99977.83;2025151;87;27709;-67
2022/08/01 04:06:41;;;;;;;11.85;6.83;;;;;;;15.03;78.98;99981.31;2025022;87;28675;-67
2022/08/01 04:09:42;;;;;;;10.95;6.37;;;;;;;15.12;78.82;99973.50;2025031;87;31138;-66
2022/08/01 04:12:44;;;;;;;10.15;6.37;;;;;;;15.18;78.70;99983.84;2025277;87;33111;-67
2022/08/01 04:15:45;;;;;;;7.33;5.95;;;;;;;15.26;78.79;99985.47;2025056;87;29781;-64
2022/08/01 04:18:47;;;;;;;6.55;5.65;;;;;;;15.34;78.82;99987.59;2025727;87;27698;-65
2022/08/01 04:21:49;;;;;;;7.00;6.30;;;;;;;15.42;78.76;99984.32;2024905;87;29958;-67
2022/08/01 04:24:53;;;;;;;13.68;6.03;;;;;;;15.50;78.86;99985.97;2025283;87;31385;-67
2022/08/01 04:27:55;;;;;;;10.13;5.70;;;;;;;15.60;78.83;99987.48;2025315;87;32242;-69
2022/08/01 04:30:57;;;;;;;8.03;5.58;;;;;;;15.68;78.70;99983.70;2005174;87;30114;-66
2022/08/01 04:34:00;;;;;;;8.63;5.15;;;;;;;15.74;78.51;99981.02;2025266;87;27702;-68
2022/08/01 04:37:01;;;;;;;10.50;5.40;;;;;;;15.70;78.22;99957.44;2025342;87;28570;-68
2022/08/01 04:40:07;;;;;;;7.35;5.12;;;;;;;15.84;77.88;99969.89;2025276;87;31914;-70
2022/08/01 04:43:08;;;;;;;9.10;5.30;;;;;;;15.90;77.64;99978.04;2005295;87;33040;-69
2022/08/01 04:46:10;;;;;;;6.67;5.10;;;;;;;15.93;77.67;99977.30;2025158;87;29909;-69
2022/08/01 04:49:14;;;;;;;9.10;4.75;;;;;;;15.99;77.61;99973.77;2025217;87;27726;-68
2022/08/01 04:52:17;;;;;;;6.50;5.50;;;;;;;16.01;77.24;99979.91;2025374;87;29227;-69
2022/08/01 04:55:19;;;;;;;6.03;5.37;;;;;;;16.02;77.23;99981.13;2025330;87;31396;-69
2022/08/01 04:58:20;;;;;;;9.85;5.97;;;;;;;16.06;77.33;99979.92;2025418;87;33816;-67
2022/08/01 05:01:21;;;;;;;10.55;5.30;;;;;;;16.10;77.50;99978.70;2060257;86;29781;-68
2022/08/01 05:04:23;;;;;;;7.83;5.25;;;;;;;16.14;77.29;99981.14;2062230;86;27884;-65
2022/08/01 05:07:24;;;;;;;7.33;4.75;;;;;;;16.16;77.33;99988.17;2061679;86;29863;-64
2022/08/01 05:10:26;;;;;;;13.45;5.00;;;;;;;16.19;77.20;99980.30;2061564;86;31629;-68
2022/08/01 05:13:28;;;;;;;7.37;5.30;;;;;;;16.22;77.11;99975.51;2061657;86;34111;-68
2022/08/01 05:16:29;;;;;;;11.50;5.95;;;;;;;16.25;77.17;99970.37;2062014;86;29848;-68
2022/08/01 05:19:36;;;;;;;8.83;6.45;;;;;;;16.28;77.13;99974.19;2061858;86;27650;-69
2022/08/01 05:22:34;;;;;;;7.15;6.12;;;;;;;16.31;76.82;99977.98;2061596;86;33160;-68
2022/08/01 05:25:36;;;;;;;7.87;5.80;;;;;;;16.38;77.05;99977.87;2061730;86;31471;-68
2022/08/01 05:28:37;;;;;;;12.58;6.40;;;;;;;16.42;76.81;99973.58;2061733;86;33311;-68
2022/08/01 05:31:39;;;;;;;7.25;5.40;;;;;;;16.47;76.67;99978.11;2061693;86;29485;-68
2022/08/01 05:34:40;;;;;;;7.65;5.72;;;;;;;16.52;76.94;99971.37;2061747;86;27733;-68
2022/08/01 05:37:41;;;;;;;13.85;5.83;;;;;;;16.59;76.94;99967.69;2061779;86;29843;-67
2022/08/01 05:40:42;;;;;;;9.30;5.58;;;;;;;16.67;76.78;99969.27;2062078;86;31595;-67
2022/08/01 05:43:43;;;;;;;10.72;6.75;;;;;;;16.75;76.66;99967.80;2061681;86;33330;-68
2022/08/01 05:46:46;;;;;;;10.03;6.28;;;;;;;16.85;76.85;99970.98;2061464;86;29121;-68
2022/08/01 05:49:47;;;;;;;13.55;6.78;;;;;;;16.97;76.81;99977.25;2061824;86;28062;-68
2022/08/01 05:52:48;;;;;;;5.80;4.97;;;;;;;17.08;76.69;99980.43;2061784;86;29048;-68
2022/08/01 05:55:50;;;;;;;6.97;5.62;;;;;;;17.16;76.27;99965.79;2061643;86;31184;-66
2022/08/01 05:58:51;;;;;;;7.05;5.50;;;;;;;17.25;76.07;99968.22;2061715;86;33624;-69
2022/08/01 06:01:53;;;;;;;9.23;5.47;;;;;;;17.37;76.11;99973.59;2061654;86;29343;-68
2022/08/01 06:04:55;;;;;;;8.23;5.70;;;;;;;17.47;76.01;99975.88;2061854;86;27705;-67
2022/08/01 06:07:57;;;;;;;8.93;5.70;;;;;;;17.52;75.42;99976.88;2061732;86;28625;-68
2022/08/01 06:10:59;;;;;;;8.58;6.10;;;;;;;17.58;75.51;99979.92;2061815;86;31904;-68
2022/08/01 06:14:00;;;;;;;9.75;5.70;;;;;;;17.66;75.06;99981.98;2061583;86;33071;-67
2022/08/01 06:17:01;;;;;;;13.48;5.67;;;;;;;17.74;74.76;99981.33;2062096;86;29414;-67
2022/08/01 06:20:05;;;;;;;6.50;5.67;;;;;;;17.82;75.04;99980.67;2062144;86;27587;-68
2022/08/01 06:23:07;;;;;;;11.45;6.08;;;;;;;17.91;75.04;99994.30;2061826;86;28658;-68
2022/08/01 06:26:09;;;;;;;13.20;5.95;;;;;;;18.04;75.00;99986.49;2061315;86;32351;-68
2022/08/01 06:29:11;;;;;;;12.40;5.90;;;;;;;18.15;74.95;99987.77;2061899;86;33357;-69
2022/08/01 06:32:12;;;;;;;10.95;6.53;;;;;;;18.27;74.45;99985.84;2061450;86;29306;-68
2022/08/01 06:35:17;;;;;;;14.00;6.12;;;;;;;18.47;74.96;99982.73;2061803;86;27678;-68
2022/08/01 06:38:19;;;;;;;19.12;7.03;;;;;;;18.68;74.54;99986.78;2061543;86;29358;-68
2022/08/01 06:41:20;;;;;;;11.15;6.50;;;;;;;18.87;74.27;99986.97;2061618;86;31053;-67
2022/08/01 06:44:21;;;;;;;9.90;6.20;;;;;;;19.08;74.33;99990.50;2061548;86;34104;-68
2022/08/01 06:47:23;;;;;;;16.73;7.20;;;;;;;19.26;73.67;99981.68;2061699;86;30061;-67
2022/08/01 06:50:24;;;;;;;14.05;6.47;;;;;;;19.46;73.85;99983.03;2061703;86;27618;-68
2022/08/01 06:53:25;;;;;;;11.90;6.78;;;;;;;19.66;73.56;99982.56;2061980;86;29042;-68
2022/08/01 06:56:27;;;;;;;13.53;6.12;;;;;;;19.86;73.31;99974.73;2061726;86;31137;-67
2022/08/01 06:59:28;;;;;;;10.68;6.37;;;;;;;20.16;73.15;99974.73;2061527;86;33170;-67
2022/08/01 07:02:29;;;;;;;23.60;7.22;;;;;;;20.49;73.32;99976.08;2038395;86;30245;-69
2022/08/01 07:05:30;;;;;;;11.50;5.85;;;;;;;20.84;72.36;99977.74;2061352;86;27627;-67
2022/08/01 07:08:32;;;;;;;7.30;5.95;;;;;;;21.16;72.16;99976.93;2061408;86;28783;-66
2022/08/01 07:11:33;;;;;;;13.35;5.37;;;;;;;21.46;71.76;99979.78;2061667;86;31454;-67
2022/08/01 07:14:35;;;;;;;15.50;6.40;;;;;;;21.79;71.92;99975.19;2061379;86;33068;-68
2022/08/01 07:17:41;;;;;;;13.43;6.15;;;;;;;22.11;70.86;99973.20;2061412;86;30171;-68
2022/08/01 07:20:43;;;;;;;12.78;5.42;;;;;;;22.41;70.14;99979.22;2061695;86;27625;-67
2022/08/01 07:23:44;;;;;;;9.73;4.72;;;;;;;22.67;69.86;99978.88;2061522;86;29819;-68
2022/08/01 07:26:48;;;;;;;7.12;5.10;;;;;;;22.89;68.91;99980.17;2061186;86;33102;-68
2022/08/01 07:29:51;;;;;;;6.35;4.92;;;;;;;23.11;68.79;99987.39;2038904;86;33888;-68
2022/08/01 07:32:52;;;;;;;6.92;4.10;;;;;;;23.32;68.63;99984.27;2061913;86;29942;-68
2022/08/01 07:35:53;;;;;;;11.50;4.75;;;;;;;23.55;68.42;99980.38;2061467;86;27719;-68
2022/08/01 07:38:55;;;;;;;6.85;4.25;;;;;;;24.03;67.97;99985.20;2061984;86;29414;-69
2022/08/01 07:41:57;;;;;;;6.10;4.45;;;;;;;24.47;66.84;99979.83;2061258;86;32417;-68
2022/08/01 07:44:59;;;;;;;4.53;4.10;;;;;;;24.83;66.25;99982.12;2061449;86;33448;-67
2022/08/01 07:48:05;;;;;;;7.80;4.15;;;;;;;25.17;65.72;99980.94;2061256;86;53552;-68
2022/08/01 07:51:08;;;;;;;7.40;3.83;;;;;;;25.47;65.27;99983.36;2061633;86;27865;-69
2022/08/01 07:54:09;;;;;;;10.98;4.53;;;;;;;25.81;64.98;99980.38;2061601;86;29710;-68
2022/08/01 07:57:10;;;;;;;10.10;4.70;;;;;;;26.14;64.69;99981.49;2061673;86;31429;-68
2022/08/01 08:00:13;;;;;;;4.58;3.58;;;;;;;26.41;63.07;99986.88;2051943;85;34178;-68
2022/08/01 08:03:15;;;;;;;6.67;4.53;;;;;;;26.61;62.31;99988.55;2025305;87;30171;-68
2022/08/01 08:06:16;;;;;;;5.87;3.62;;;;;;;26.81;61.46;99986.63;2025377;87;27711;-67
2022/08/01 08:09:17;;;;;;;4.70;3.85;;;;;;;26.86;60.08;99989.67;2025076;87;29095;-67
2022/08/01 08:12:19;;;;;;;6.00;4.30;;;;;;;26.82;59.61;99987.81;2025344;87;31384;-66
2022/08/01 08:15:27;;;;;;;3.90;3.52;;;;;;;26.87;59.37;99994.13;2025286;87;33350;-66
2022/08/01 08:18:32;;;;;;;6.85;4.22;;;;;;;26.88;58.40;99991.72;2025064;87;29908;-66
2022/08/01 08:21:33;;;;;;;5.40;3.80;;;;;;;26.83;58.50;99990.89;2025431;87;27748;-65
2022/08/01 08:24:36;;;;;;;6.03;4.00;;;;;;;26.85;58.45;99994.84;2025399;87;29066;-65
2022/08/01 08:27:38;;;;;;;8.98;3.95;;;;;;;26.79;58.00;99990.06;2025210;87;31498;-66
2022/08/01 08:30:40;;;;;;;4.17;3.77;;;;;;;26.68;57.26;100000.50;2025273;87;34140;-66
2022/08/01 08:33:42;;;;;;;4.55;3.22;;;;;;;26.61;57.06;100000.91;2025315;87;30019;-66
2022/08/01 08:36:44;;;;;;;4.08;3.52;;;;;;;26.60;57.28;99999.73;2025187;87;27718;-66
2022/08/01 08:39:45;;;;;;;6.58;3.67;;;;;;;26.73;57.36;100005.92;2025809;87;28091;-65
2022/08/01 08:42:48;;;;;;;5.92;3.87;;;;;;;26.87;56.75;100003.75;2024967;87;33199;-65
2022/08/01 08:45:50;;;;;;;4.03;3.65;;;;;;;26.99;56.12;100009.09;2025315;87;32980;-66
2022/08/01 08:48:52;;;;;;;5.80;3.85;;;;;;;27.05;55.76;100010.22;2025281;87;29327;-66
2022/08/01 08:51:59;;;;;;;5.67;3.90;;;;;;;27.10;55.84;100013.75;2025577;87;27606;-66
2022/08/01 08:55:00;;;;;;;3.83;3.47;;;;;;;27.17;55.30;100005.59;2025344;87;29532;-68
2022/08/01 08:58:05;;;;;;;3.95;3.62;;;;;;;27.27;55.20;100011.66;2025041;87;31049;-65
2022/08/01 09:01:08;;;;;;;4.78;3.60;;;;;;;27.34;54.65;100007.61;2025022;86;34270;-65
2022/08/01 09:04:11;;;;;;;3.60;3.12;;;;;;;27.43;54.47;100016.06;2042843;87;30160;-68
2022/08/01 09:07:14;;;;;;;6.95;3.17;;;;;;;27.56;54.14;100015.39;2042838;87;27710;-67
2022/08/01 09:10:15;;;;;;;5.40;3.20;;;;;;;27.74;53.81;100023.19;2042455;86;29918;-66
2022/08/01 09:13:17;;;;;;;4.92;3.75;;;;;;;27.81;53.31;100022.75;2044580;87;30976;-67
2022/08/01 09:16:18;;;;;;;4.37;3.95;;;;;;;27.93;52.61;100019.46;2039176;87;34230;-65
2022/08/01 09:19:21;;;;;;;3.05;2.27;;;;;;;28.00;52.80;100025.36;2039302;87;29289;-66
2022/08/01 09:22:25;;;;;;;6.62;3.98;;;;;;;28.19;52.44;100016.99;2039639;87;27620;-67
2022/08/01 09:25:32;;;;;;;3.92;3.55;;;;;;;28.60;52.73;100024.16;2037593;87;28661;-67
2022/08/01 09:28:30;;;;;;;5.43;2.90;;;;;;;29.07;52.18;100015.65;2036981;87;32078;-68
2022/08/01 09:31:43;;;;;;;5.05;3.60;;;;;;;29.43;51.40;100010.08;2037873;87;33637;-66
2022/08/01 09:34:46;;;;;;;3.55;3.10;;;;;;;29.47;50.68;100009.45;2037956;87;29365;-66
2022/08/01 09:37:47;;;;;;;3.50;3.20;;;;;;;29.60;50.12;100014.71;2037611;87;27679;-67
2022/08/01 09:40:56;;;;;;;3.85;3.25;;;;;;;29.76;50.02;100012.94;2037819;87;28641;-68
2022/08/01 09:43:59;;;;;;;5.05;3.12;;;;;;;29.91;49.14;100008.58;2037982;87;31449;-68
2022/08/01 09:47:00;;;;;;;7.72;3.55;;;;;;;29.81;48.44;100008.16;2037446;87;34324;-67
2022/08/01 09:50:01;;;;;;;4.30;3.27;;;;;;;29.73;48.05;100013.35;2037904;87;30135;-67
2022/08/01 09:53:02;;;;;;;3.25;2.60;;;;;;;29.58;48.66;100013.52;2038022;87;27670;-64
2022/08/01 09:56:12;;;;;;;5.97;3.17;;;;;;;29.46;48.16;100005.53;2037503;87;29894;-68
2022/08/01 09:59:13;;;;;;;3.58;3.27;;;;;;;29.42;47.92;100005.11;2037896;87;31069;-65
2022/08/01 10:02:33;;;;;;;4.00;2.90;;;;;;;29.39;48.22;100004.97;2067974;85;33490;-66
2022/08/01 10:05:36;;;;;;;2.45;1.67;;;;;;;29.40;47.98;100000.32;2059722;86;29451;-62
2022/08/01 10:08:48;;;;;;;4.92;2.45;;;;;;;29.48;48.20;100004.80;2059999;86;27675;-68
2022/08/01 10:11:49;;;;;;;3.22;2.83;;;;;;;29.59;48.45;100008.87;2059895;86;29068;-69
2022/08/01 10:14:54;;;;;;;4.03;3.25;;;;;;;29.62;48.20;100006.53;2060331;86;31685;-67
2022/08/01 10:17:57;;;;;;;;;;;;;;;29.67;48.06;99999.86;2062243;86;33564;-64
2022/08/01 10:21:01;;;;;;;3.67;3.37;;;;;;;29.66;48.09;100005.06;2059703;86;29681;-66
2022/08/01 10:24:04;;;;;;;5.62;2.67;;;;;;;29.70;47.98;99999.95;2060670;86;27675;-68
2022/08/01 10:27:08;;;;;;;4.50;2.98;;;;;;;29.69;47.85;99989.97;2059876;86;29539;-63
2022/08/01 10:30:11;;;;;;;4.53;3.90;;;;;;;29.60;47.51;100001.75;2059901;85;31853;-68
2022/08/01 10:33:13;;;;;;;3.05;2.85;;;;;;;29.48;47.37;100000.66;2059951;86;33004;-68
2022/08/01 10:36:21;;;;;;;3.98;2.65;;;;;;;29.31;47.46;99990.48;2060235;86;29856;-67
2022/08/01 10:39:23;;;;;;;2.87;2.58;;;;;;;29.23;47.37;99995.14;2059819;86;27706;-67
2022/08/01 10:42:24;;;;;;;2.45;1.85;;;;;;;29.19;47.17;100001.29;2060196;86;29438;-68
2022/08/01 10:45:26;;;;;;;3.90;2.92;;;;;;;29.10;47.19;99998.69;2059494;86;31053;-66
2022/08/01 10:48:33;;;;;;;3.20;2.98;;;;;;;29.01;47.23;99992.18;2030414;87;33003;-67
2022/08/01 10:51:39;;;;;;;3.47;3.17;;;;;;;29.05;47.63;99991.55;2013050;88;29397;-68
2022/08/01 10:54:41;;;;;;;2.00;0.98;;;;;;;29.07;47.14;99990.83;2042246;87;28051;-68
2022/08/01 10:57:47;;;;;;;4.12;2.10;;;;;;;29.02;47.07;99986.98;2042047;87;28667;-68
2022/08/01 11:00:49;;;;;;;3.08;2.33;;;;;;;29.05;47.58;99990.72;2041540;87;31904;-67
2022/08/01 11:04:10;;;;;;;2.40;1.80;;;;;;;29.10;47.27;99985.45;2064460;86;33244;-68
2022/08/01 11:07:20;;;;;;;3.70;2.70;;;;;;;29.22;47.45;99994.82;2034174;87;29456;-68
2022/08/01 11:10:42;;;;;;;3.85;3.08;;;;;;;29.39;47.40;99991.72;2065124;86;27699;-67
2022/08/01 11:14:09;;;;;;;1.37;1.27;;;;;;;29.50;47.54;99991.10;2060806;86;28676;-66
2022/08/01 11:17:49;;;;;;;4.87;2.92;;;;;;;29.71;47.06;99992.00;2051835;86;31193;-67
2022/08/01 11:21:00;;;;;;;2.58;2.37;;;;;;;29.83;46.41;99995.83;2052076;86;34147;-67
2022/08/01 11:24:02;;;;;;;2.60;2.40;;;;;;;29.90;46.45;99993.62;2052357;86;29338;-67
2022/08/01 11:27:19;;;;;;;2.98;2.67;;;;;;;29.98;46.63;99990.15;2052618;86;27617;-67
2022/08/01 11:30:25;;;;;;;2.83;2.50;;;;;;;30.06;46.37;99991.84;2067087;86;29044;-68
2022/08/01 11:33:44;;;;;;;4.97;2.40;;;;;;;30.21;46.44;99985.25;2052334;86;31424;-67
2022/08/01 11:36:46;;;;;;;2.65;2.45;;;;;;;30.37;45.96;99983.42;2052341;86;33731;-68
2022/08/01 11:40:11;;;;;;;2.70;2.50;;;;;;;30.56;46.38;99976.73;2052464;86;29109;-67
2022/08/01 11:43:17;;;;;;;2.47;2.27;;;;;;;30.71;45.86;99985.63;2041201;87;27696;-67
2022/08/01 11:46:18;;;;;;;5.47;2.85;;;;;;;30.76;45.52;99982.20;2073089;85;29958;-67
2022/08/01 11:49:33;;;;;;;4.17;3.30;;;;;;;30.72;45.48;99991.98;2073345;85;31023;-66
2022/08/01 11:52:36;;;;;;;4.70;2.95;;;;;;;30.67;45.35;99984.34;2073060;85;34124;-68
2022/08/01 11:55:37;;;;;;;5.75;2.52;;;;;;;30.64;45.14;99992.23;2072918;85;29735;-67
2022/08/01 11:58:38;;;;;;;3.10;2.83;;;;;;;30.56;45.05;99990.55;2073328;85;27696;-66
2022/08/01 12:01:41;;;;;;;4.42;3.17;;;;;;;30.51;44.88;99987.03;2075173;85;29064;-67
2022/08/01 12:05:02;;;;;;;4.92;2.92;;;;;;;30.53;44.94;99994.55;2059771;86;31389;-67
2022/08/01 12:08:07;;;;;;;2.00;1.85;;;;;;;30.47;44.75;99980.22;2059728;86;32982;-67
2022/08/01 12:11:08;;;;;;;4.08;2.67;;;;;;;30.58;44.82;99980.97;2059879;86;29938;-66
2022/08/01 12:14:11;;;;;;;5.65;3.08;;;;;;;30.63;44.39;99981.69;2059940;86;27718;-66
2022/08/01 12:17:13;;;;;;;4.28;2.47;;;;;;;30.56;44.37;99976.73;2040333;86;30143;-65
2022/08/01 12:20:22;;;;;;;3.92;2.83;;;;;;;30.53;44.34;99984.87;2060108;86;31371;-67
2022/08/01 12:23:24;;;;;;;4.65;2.20;;;;;;;30.56;44.49;99975.34;2059731;86;32409;-67
2022/08/01 12:26:51;;;;;;;2.85;2.37;;;;;;;30.51;44.56;99967.67;2059504;86;30544;-68
2022/08/01 12:30:01;;;;;;;2.98;2.12;;;;;;;30.47;44.54;99973.31;2059527;86;27706;-68
2022/08/01 12:33:10;;;;;;;6.78;2.50;;;;;;;30.47;44.05;99981.06;2059450;86;29536;-68
2022/08/01 12:36:13;;;;;;;9.23;5.65;;;;;;;30.41;44.38;99973.65;2059548;86;28718;-66
2022/08/01 12:39:14;;;;;;;4.35;3.10;;;;;;;30.41;44.08;99973.65;2059811;86;32885;-68
2022/08/01 12:42:16;;;;;;;2.65;2.20;;;;;;;30.36;44.08;99976.75;2059565;86;30486;-67
2022/08/01 12:45:27;;;;;;;4.72;2.90;;;;;;;30.21;43.90;99970.89;2059821;86;27611;-68
2022/08/01 12:48:30;;;;;;;3.58;3.17;;;;;;;30.16;44.32;99970.16;2059750;86;28275;-66
2022/08/01 12:51:31;;;;;;;7.50;3.58;;;;;;;30.15;43.79;99971.22;2059930;86;31807;-67
2022/08/01 12:55:12;;;;;;;3.60;2.52;;;;;;;30.07;43.90;99970.58;2059695;86;33718;-67
2022/08/01 12:58:17;;;;;;;8.38;2.70;;;;;;;30.09;43.96;99966.56;2059556;86;30527;-67
2022/08/01 13:01:24;;;;;;;6.25;3.65;;;;;;;30.13;44.02;99966.98;2059900;86;27680;-67
2022/08/01 13:04:26;;;;;;;4.40;2.42;;;;;;;30.05;43.91;99977.72;2061356;86;29487;-66
2022/08/01 13:07:47;;;;;;;3.20;2.90;;;;;;;29.90;43.68;99983.95;2061574;86;31454;-64
2022/08/01 13:10:52;;;;;;;5.95;2.65;;;;;;;29.63;44.12;99977.87;2061159;86;34315;-68
2022/08/01 13:13:54;;;;;;;3.20;3.00;;;;;;;29.39;44.87;99977.38;2061588;86;29329;-66
2022/08/01 13:16:56;;;;;;;4.78;3.10;;;;;;;29.20;45.38;99974.86;2062065;86;27709;-66
2022/08/01 13:19:57;;;;;;;5.00;3.10;;;;;;;29.07;45.62;99979.79;2061738;86;29037;-66
2022/08/01 13:23:17;;;;;;;6.78;3.42;;;;;;;28.99;45.77;99973.60;2061468;86;31057;-67
2022/08/01 13:26:19;;;;;;;3.33;3.00;;;;;;;28.98;46.05;99978.28;2061667;86;33377;-67
2022/08/01 13:29:24;;;;;;;3.20;2.83;;;;;;;28.97;45.90;99976.58;2038744;86;29767;-68
2022/08/01 13:32:25;;;;;;;3.27;2.98;;;;;;;28.98;45.59;99980.17;2038082;86;27674;-67
2022/08/01 13:35:27;;;;;;;6.28;3.12;;;;;;;29.03;45.77;99979.91;2061775;86;28627;-66
2022/08/01 13:41:50;;;;;;;2.75;2.55;;;;;;;28.99;45.51;99976.36;2061616;86;33389;-66
2022/08/01 13:44:54;;;;;;;4.47;3.72;;;;;;;28.95;45.85;99971.79;2061634;86;30455;-66
2022/08/01 13:47:56;;;;;;;3.10;2.77;;;;;;;28.86;45.81;99966.98;2061480;86;27800;-66
2022/08/01 13:50:57;;;;;;;4.00;3.70;;;;;;;28.75;45.22;99967.03;2061687;86;28586;-66
2022/08/01 13:53:58;;;;;;;4.62;3.72;;;;;;;28.66;45.77;99969.07;2061967;86;32400;-65
2022/08/01 13:57:00;;;;;;;3.05;2.50;;;;;;;28.55;45.63;99974.30;2061445;86;34295;-65
2022/08/01 14:00:08;;;;;;;2.72;2.52;;;;;;;28.48;45.75;99975.63;2061717;86;29187;-65
2022/08/01 14:03:10;;;;;;;2.98;1.67;;;;;;;28.49;45.45;99974.07;2060460;86;27692;-65
2022/08/01 14:06:12;;;;;;;1.12;1.02;;;;;;;28.50;45.66;99973.02;2074889;85;29941;-65
2022/08/01 14:09:16;;;;;;;2.67;1.75;;;;;;;28.56;45.11;99971.36;2066368;86;31448;-65
2022/08/01 14:12:16;;;;;;;2.83;2.62;;;;;;;28.64;44.58;99979.98;2064184;86;34385;-65
2022/08/01 14:15:18;;;;;;;2.20;1.95;;;;;;;28.71;45.19;99977.27;2060077;86;29763;-67
2022/08/01 14:18:20;;;;;;;3.25;2.95;;;;;;;28.79;44.60;99982.11;2059626;86;27806;-65
2022/08/01 14:21:22;;;;;;;4.33;2.90;;;;;;;28.85;45.14;99983.73;2060205;86;29023;-66
2022/08/01 14:24:26;;;;;;;2.47;2.27;;;;;;;28.84;44.64;99980.12;2059694;86;31185;-66
2022/08/01 14:27:29;;;;;;;1.82;1.60;;;;;;;28.80;44.30;99983.81;2059902;86;33052;-67
2022/08/01 14:30:31;;;;;;;2.80;2.60;;;;;;;28.74;44.38;99990.13;2059519;86;30528;-65